RYR12LF LPMA-LPPR
Flight info
| Callsign | RYR12LF |
|---|---|
| Flight time | N/A |
| Altitude | 38000 |
| Route | DEGUN DCT VABEM DCT ASMAR DCT DIRMA DCT ASMOV |
| Aircraft | B38M/M-SDE1FGHILORVWXY/HB1 |
Departure
| Time | 2026-05-07 14:11 |
|---|---|
| Airport | Cristiano Ronaldo International Airport (LPMA) |
Arrival
| Time | N/A |
|---|---|
| Airport | Francisco de Sá Carneiro Airport (LPPR) |
| Time | Latitude | Longitude | Altitude | Speed | Heading |
|---|---|---|---|---|---|
| 2026-05-07 13:51 | 32.69307 | -16.77724 | 176 ft | 0 kts | 139° |
| 2026-05-07 14:02 | 32.69308 | -16.77726 | 176 ft | 1 kts | 139° |
| 2026-05-07 14:03 | 32.69320 | -16.77739 | 175 ft | 2 kts | 137° |
| 2026-05-07 14:03 | 32.69334 | -16.77753 | 174 ft | 3 kts | 151° |
| 2026-05-07 14:03 | 32.69352 | -16.77760 | 172 ft | 3 kts | 182° |
| 2026-05-07 14:03 | 32.69370 | -16.77754 | 171 ft | 3 kts | 216° |
| 2026-05-07 14:04 | 32.69379 | -16.77745 | 170 ft | 1 kts | 225° |
| 2026-05-07 14:04 | 32.69381 | -16.77743 | 170 ft | 0 kts | 225° |
| 2026-05-07 14:07 | 32.69379 | -16.77744 | 169 ft | 2 kts | 225° |
| 2026-05-07 14:07 | 32.69372 | -16.77753 | 170 ft | 0 kts | 225° |
| 2026-05-07 14:08 | 32.69370 | -16.77756 | 170 ft | 1 kts | 225° |
| 2026-05-07 14:08 | 32.69326 | -16.77809 | 171 ft | 15 kts | 226° |
| 2026-05-07 14:08 | 32.69287 | -16.77935 | 166 ft | 20 kts | 272° |
| 2026-05-07 14:08 | 32.69232 | -16.78092 | 163 ft | 23 kts | 224° |
| 2026-05-07 14:09 | 32.69114 | -16.78229 | 162 ft | 23 kts | 224° |
| 2026-05-07 14:09 | 32.69003 | -16.78359 | 160 ft | 23 kts | 225° |
| 2026-05-07 14:09 | 32.68907 | -16.78408 | 158 ft | 12 kts | 202° |
| 2026-05-07 14:09 | 32.68902 | -16.78469 | 158 ft | 6 kts | 1° |
| 2026-05-07 14:10 | 32.68935 | -16.78438 | 158 ft | 7 kts | 42° |
| 2026-05-07 14:10 | 32.68974 | -16.78394 | 159 ft | 10 kts | 44° |
| 2026-05-07 14:10 | 32.69111 | -16.78235 | 163 ft | 64 kts | 44° |
| 2026-05-07 14:10 | 32.69636 | -16.77624 | 176 ft | 143 kts | 44° |
| 2026-05-07 14:11 | 32.70443 | -16.76658 | 591 ft | 178 kts | 49° |
| 2026-05-07 14:11 | 32.71087 | -16.75343 | 1534 ft | 190 kts | 70° |
| 2026-05-07 14:11 | 32.71356 | -16.73792 | 2549 ft | 196 kts | 87° |
| 2026-05-07 14:11 | 32.71288 | -16.72101 | 3400 ft | 210 kts | 99° |
| 2026-05-07 14:12 | 32.70955 | -16.70471 | 4682 ft | 199 kts | 110° |
| 2026-05-07 14:12 | 32.70379 | -16.68952 | 5690 ft | 205 kts | 117° |
| 2026-05-07 14:12 | 32.69676 | -16.67327 | 5987 ft | 239 kts | 118° |
| 2026-05-07 14:12 | 32.68873 | -16.65546 | 6688 ft | 247 kts | 120° |
| 2026-05-07 14:13 | 32.68054 | -16.63790 | 7755 ft | 238 kts | 122° |
| 2026-05-07 14:13 | 32.67252 | -16.62090 | 8660 ft | 239 kts | 122° |
| 2026-05-07 14:13 | 32.66509 | -16.60244 | 9190 ft | 260 kts | 105° |
| 2026-05-07 14:13 | 32.66611 | -16.58079 | 9932 ft | 259 kts | 65° |
| 2026-05-07 14:14 | 32.67538 | -16.56253 | 10685 ft | 262 kts | 47° |
| 2026-05-07 14:14 | 32.68913 | -16.54841 | 11163 ft | 269 kts | 24° |
| 2026-05-07 14:14 | 32.70597 | -16.53711 | 11647 ft | 286 kts | 26° |
| 2026-05-07 14:14 | 32.72343 | -16.52436 | 12093 ft | 305 kts | 27° |
| 2026-05-07 14:15 | 32.74185 | -16.51058 | 12525 ft | 324 kts | 27° |
| 2026-05-07 14:15 | 32.76163 | -16.49555 | 12953 ft | 343 kts | 28° |
| 2026-05-07 14:15 | 32.78206 | -16.47988 | 13480 ft | 357 kts | 28° |
| 2026-05-07 14:15 | 32.80311 | -16.46369 | 14075 ft | 366 kts | 28° |
| 2026-05-07 14:16 | 32.82442 | -16.44734 | 14843 ft | 369 kts | 28° |
| 2026-05-07 14:16 | 32.84637 | -16.43048 | 15526 ft | 375 kts | 28° |
| 2026-05-07 14:16 | 32.86843 | -16.41355 | 16247 ft | 379 kts | 28° |
| 2026-05-07 14:16 | 32.89070 | -16.39645 | 16916 ft | 385 kts | 28° |
| 2026-05-07 14:17 | 32.91354 | -16.37888 | 17612 ft | 389 kts | 28° |
| 2026-05-07 14:17 | 32.93650 | -16.36122 | 18280 ft | 394 kts | 28° |
| 2026-05-07 14:17 | 32.95962 | -16.34342 | 18846 ft | 399 kts | 28° |
| 2026-05-07 14:17 | 32.98295 | -16.32546 | 19391 ft | 404 kts | 28° |
| 2026-05-07 14:18 | 33.00653 | -16.30728 | 19932 ft | 408 kts | 28° |
| 2026-05-07 14:18 | 33.03077 | -16.28859 | 20466 ft | 413 kts | 28° |
| 2026-05-07 14:18 | 33.05499 | -16.26990 | 20999 ft | 417 kts | 29° |
| 2026-05-07 14:18 | 33.07948 | -16.25100 | 21521 ft | 421 kts | 29° |
| 2026-05-07 14:19 | 33.10409 | -16.23197 | 22032 ft | 426 kts | 29° |
| 2026-05-07 14:19 | 33.12903 | -16.21270 | 22546 ft | 430 kts | 29° |
| 2026-05-07 14:19 | 33.15454 | -16.19296 | 23050 ft | 435 kts | 29° |
| 2026-05-07 14:19 | 33.17974 | -16.17345 | 23540 ft | 439 kts | 29° |
| 2026-05-07 14:20 | 33.20580 | -16.15326 | 23963 ft | 443 kts | 30° |
| 2026-05-07 14:20 | 33.23186 | -16.13304 | 24387 ft | 447 kts | 30° |
| 2026-05-07 14:20 | 33.25771 | -16.11299 | 24798 ft | 450 kts | 30° |
| 2026-05-07 14:20 | 33.28441 | -16.09226 | 25208 ft | 453 kts | 30° |
| 2026-05-07 14:21 | 33.31093 | -16.07165 | 25619 ft | 457 kts | 30° |
| 2026-05-07 14:21 | 33.33750 | -16.05099 | 26007 ft | 460 kts | 30° |
| 2026-05-07 14:21 | 33.36447 | -16.03000 | 26402 ft | 463 kts | 30° |
| 2026-05-07 14:21 | 33.39150 | -16.00895 | 26795 ft | 466 kts | 30° |
| 2026-05-07 14:22 | 33.41885 | -15.98763 | 27177 ft | 470 kts | 30° |
| 2026-05-07 14:22 | 33.44643 | -15.96612 | 27547 ft | 473 kts | 30° |
| 2026-05-07 14:22 | 33.47406 | -15.94455 | 27919 ft | 476 kts | 30° |
| 2026-05-07 14:22 | 33.50209 | -15.92266 | 28286 ft | 479 kts | 30° |
| 2026-05-07 14:23 | 33.53008 | -15.90078 | 28647 ft | 482 kts | 30° |
| 2026-05-07 14:23 | 33.55826 | -15.87873 | 29004 ft | 485 kts | 30° |
| 2026-05-07 14:23 | 33.58660 | -15.85654 | 29356 ft | 488 kts | 30° |
| 2026-05-07 14:23 | 33.61485 | -15.83440 | 29699 ft | 491 kts | 30° |
| 2026-05-07 14:24 | 33.64370 | -15.81177 | 30037 ft | 494 kts | 30° |
| 2026-05-07 14:24 | 33.67240 | -15.78924 | 30328 ft | 497 kts | 31° |
| 2026-05-07 14:24 | 33.70139 | -15.76647 | 30640 ft | 498 kts | 30° |
| 2026-05-07 14:24 | 33.73046 | -15.74362 | 30964 ft | 500 kts | 31° |
| 2026-05-07 14:25 | 33.75975 | -15.72057 | 31289 ft | 502 kts | 30° |
| 2026-05-07 14:25 | 33.78912 | -15.69743 | 31576 ft | 503 kts | 31° |
| 2026-05-07 14:25 | 33.81821 | -15.67452 | 31867 ft | 505 kts | 30° |
| 2026-05-07 14:25 | 33.84769 | -15.65126 | 32175 ft | 507 kts | 31° |
| 2026-05-07 14:26 | 33.87719 | -15.62797 | 32468 ft | 509 kts | 31° |
| 2026-05-07 14:26 | 33.90693 | -15.60447 | 32766 ft | 510 kts | 31° |
| 2026-05-07 14:26 | 33.93670 | -15.58093 | 33051 ft | 512 kts | 31° |
| 2026-05-07 14:26 | 33.96618 | -15.55759 | 33333 ft | 514 kts | 31° |
| 2026-05-07 14:27 | 33.99615 | -15.53386 | 33619 ft | 515 kts | 31° |
| 2026-05-07 14:27 | 34.02617 | -15.51005 | 33902 ft | 517 kts | 31° |
| 2026-05-07 14:27 | 34.05625 | -15.48619 | 34169 ft | 518 kts | 31° |
| 2026-05-07 14:27 | 34.08636 | -15.46228 | 34494 ft | 517 kts | 31° |
| 2026-05-07 14:28 | 34.11648 | -15.43836 | 34842 ft | 516 kts | 31° |
| 2026-05-07 14:28 | 34.14624 | -15.41471 | 35161 ft | 515 kts | 31° |
| 2026-05-07 14:28 | 34.17631 | -15.39077 | 35471 ft | 514 kts | 31° |
| 2026-05-07 14:28 | 34.20584 | -15.36726 | 35776 ft | 513 kts | 30° |
| 2026-05-07 14:29 | 34.23570 | -15.34345 | 36076 ft | 512 kts | 30° |
| 2026-05-07 14:29 | 34.26558 | -15.31962 | 36368 ft | 512 kts | 30° |
| 2026-05-07 14:29 | 34.29524 | -15.29592 | 36643 ft | 511 kts | 30° |
| 2026-05-07 14:29 | 34.32453 | -15.27251 | 36911 ft | 511 kts | 30° |
| 2026-05-07 14:30 | 34.35440 | -15.24861 | 37185 ft | 510 kts | 30° |
| 2026-05-07 14:30 | 34.38375 | -15.22510 | 37442 ft | 509 kts | 30° |
| 2026-05-07 14:30 | 34.41338 | -15.20135 | 37689 ft | 509 kts | 30° |
| 2026-05-07 14:30 | 34.44294 | -15.17763 | 37925 ft | 508 kts | 30° |
| 2026-05-07 14:31 | 34.47206 | -15.15424 | 38027 ft | 508 kts | 30° |
| 2026-05-07 14:31 | 34.53090 | -15.10693 | 38018 ft | 507 kts | 30° |
| 2026-05-07 14:32 | 34.58967 | -15.05959 | 38015 ft | 507 kts | 30° |
| 2026-05-07 14:32 | 34.64846 | -15.01216 | 38016 ft | 507 kts | 30° |
| 2026-05-07 14:33 | 34.70711 | -14.96475 | 38015 ft | 507 kts | 31° |
| 2026-05-07 14:33 | 34.76589 | -14.91716 | 38001 ft | 508 kts | 31° |
| 2026-05-07 14:34 | 34.82462 | -14.86953 | 38003 ft | 508 kts | 31° |
| 2026-05-07 14:34 | 34.88328 | -14.82186 | 38006 ft | 508 kts | 31° |
| 2026-05-07 14:35 | 34.94191 | -14.77414 | 38001 ft | 508 kts | 31° |
| 2026-05-07 14:35 | 35.00092 | -14.72604 | 38005 ft | 508 kts | 31° |
| 2026-05-07 14:36 | 35.05968 | -14.67805 | 37999 ft | 508 kts | 31° |
| 2026-05-07 14:36 | 35.11843 | -14.62997 | 37998 ft | 508 kts | 31° |
| 2026-05-07 14:37 | 35.17673 | -14.58219 | 38001 ft | 508 kts | 31° |
| 2026-05-07 14:37 | 35.26482 | -14.50983 | 38001 ft | 508 kts | 31° |
| 2026-05-07 14:38 | 35.32337 | -14.46162 | 38005 ft | 508 kts | 31° |
| 2026-05-07 14:38 | 35.38202 | -14.41325 | 37998 ft | 508 kts | 31° |
| 2026-05-07 14:39 | 35.44058 | -14.36487 | 37995 ft | 508 kts | 31° |
| 2026-05-07 14:39 | 35.49904 | -14.31649 | 37997 ft | 508 kts | 31° |
| 2026-05-07 14:40 | 35.55755 | -14.26797 | 37997 ft | 508 kts | 31° |
| 2026-05-07 14:40 | 35.61605 | -14.21937 | 37998 ft | 508 kts | 31° |
| 2026-05-07 14:41 | 35.67452 | -14.17072 | 37995 ft | 507 kts | 31° |
| 2026-05-07 14:41 | 35.73286 | -14.12208 | 37996 ft | 507 kts | 31° |
| 2026-05-07 14:42 | 35.79125 | -14.07332 | 37994 ft | 507 kts | 31° |
| 2026-05-07 14:42 | 35.84958 | -14.02451 | 37996 ft | 506 kts | 31° |
| 2026-05-07 14:43 | 35.90761 | -13.97588 | 37992 ft | 506 kts | 31° |
| 2026-05-07 14:43 | 35.96606 | -13.92679 | 37993 ft | 505 kts | 31° |
| 2026-05-07 14:44 | 36.02409 | -13.87798 | 37991 ft | 505 kts | 32° |
| 2026-05-07 14:44 | 36.08185 | -13.82931 | 37992 ft | 504 kts | 32° |
| 2026-05-07 14:45 | 36.13042 | -13.78830 | 37991 ft | 504 kts | 32° |
| 2026-05-07 14:45 | 36.18804 | -13.73959 | 37987 ft | 503 kts | 32° |
| 2026-05-07 14:46 | 36.24580 | -13.69066 | 37983 ft | 503 kts | 32° |
| 2026-05-07 14:46 | 36.30358 | -13.64162 | 37981 ft | 503 kts | 32° |
| 2026-05-07 14:47 | 36.36105 | -13.59276 | 37984 ft | 503 kts | 32° |
| 2026-05-07 14:47 | 36.41882 | -13.54355 | 37981 ft | 503 kts | 32° |